createdAt,value
2018-01-03T00:00:52.802Z,58.80
2018-01-03T00:03:21.479Z,58.80
2018-01-03T00:05:50.154Z,59.30
2018-01-03T00:08:18.823Z,59.50
2018-01-03T00:10:47.495Z,59.90
2018-01-03T00:13:16.172Z,60.00
2018-01-03T00:15:44.867Z,60.80
2018-01-03T00:18:13.535Z,60.30
2018-01-03T00:20:43.902Z,60.00
2018-01-03T00:23:13.564Z,60.00
2018-01-03T00:25:43.221Z,60.50
2018-01-03T00:28:11.862Z,60.50
2018-01-03T00:30:41.299Z,61.00
2018-01-03T00:33:10.507Z,60.90
2018-01-03T00:36:05.527Z,61.30
2018-01-03T00:38:35.043Z,61.50
2018-01-03T00:41:03.726Z,61.50
2018-01-03T00:43:32.390Z,61.80
2018-01-03T00:46:01.079Z,62.00
2018-01-03T00:48:44.468Z,62.20
2018-01-03T00:51:13.851Z,62.40
2018-01-03T00:53:43.282Z,62.50
2018-01-03T00:56:11.966Z,62.50
2018-01-03T00:58:40.682Z,62.70
2018-01-03T01:01:09.387Z,62.40
2018-01-03T01:03:38.073Z,62.40
2018-01-03T01:06:06.751Z,62.60
2018-01-03T01:08:35.422Z,62.70
2018-01-03T01:11:10.362Z,63.10
2018-01-03T01:13:41.467Z,63.30
2018-01-03T01:16:11.166Z,63.20
2018-01-03T01:18:40.611Z,63.30
2018-01-03T01:21:09.399Z,63.30
2018-01-03T01:23:38.499Z,63.50
2018-01-03T01:26:07.278Z,63.50
2018-01-03T01:28:35.936Z,64.20
2018-01-03T01:31:11.708Z,63.90
2018-01-03T01:33:50.162Z,63.80
2018-01-03T01:38:26.820Z,64.40
2018-01-03T01:40:55.504Z,64.40
2018-01-03T01:43:24.174Z,64.60
2018-01-03T01:45:52.860Z,64.80
2018-01-03T01:48:21.533Z,64.90
2018-01-03T01:51:12.299Z,64.90
2018-01-03T01:53:54.515Z,65.00
2018-01-03T01:56:34.938Z,65.20
2018-01-03T02:05:17.719Z,65.70
2018-01-03T02:07:52.633Z,66.10
2018-01-03T02:10:21.308Z,66.40
2018-01-03T02:12:50.900Z,66.50
2018-01-03T02:15:19.586Z,66.70
2018-01-03T02:17:48.472Z,66.80
2018-01-03T02:20:40.645Z,67.00
2018-01-03T02:23:13.814Z,67.30
2018-01-03T02:25:57.031Z,67.50
2018-01-03T02:28:32.795Z,68.00
2018-01-03T02:38:43.067Z,69.50
2018-01-03T02:41:41.279Z,68.70
2018-01-03T02:44:31.645Z,69.10
2018-01-03T02:47:02.269Z,69.80
2018-01-03T02:49:45.586Z,69.10
2018-01-03T02:52:32.651Z,69.00
2018-01-03T02:55:01.543Z,69.80
2018-01-03T02:57:30.570Z,68.90
2018-01-03T03:00:02.933Z,68.60
2018-01-03T03:05:14.107Z,68.50
2018-01-03T03:07:58.638Z,69.00
2018-01-03T03:10:33.554Z,68.20
2018-01-03T03:13:02.226Z,68.10
2018-01-03T03:18:44.856Z,67.70
2018-01-03T03:21:37.276Z,67.60
2018-01-03T03:24:33.318Z,67.30
2018-01-03T03:27:30.771Z,67.50
2018-01-03T03:30:04.710Z,67.40
2018-01-03T03:42:11.246Z,67.60
2018-01-03T03:44:50.879Z,67.60
2018-01-03T03:47:19.545Z,67.80
2018-01-03T03:59:00.165Z,67.70
2018-01-03T04:01:28.826Z,67.80
2018-01-03T04:03:57.897Z,68.40
2018-01-03T04:06:26.602Z,67.70
2018-01-03T04:09:19.426Z,67.70
2018-01-03T04:11:48.108Z,67.60
2018-01-03T04:14:16.786Z,67.80
2018-01-03T04:22:48.819Z,67.90
2018-01-03T04:25:17.492Z,68.30
2018-01-03T04:27:46.172Z,68.70
2018-01-03T04:30:14.858Z,69.00
2018-01-03T04:32:43.538Z,69.00
2018-01-03T04:38:17.539Z,69.00
2018-01-03T04:43:28.509Z,69.10
2018-01-03T04:45:58.173Z,69.30
2018-01-03T04:48:26.816Z,69.30
2018-01-03T04:51:01.738Z,69.30
2018-01-03T04:53:30.422Z,69.40
2018-01-03T04:55:59.873Z,69.10
2018-01-03T04:58:29.430Z,69.10
2018-01-03T05:00:59.009Z,69.10
2018-01-03T05:03:27.690Z,69.10
2018-01-03T05:06:02.522Z,68.90
2018-01-03T05:08:31.891Z,68.90
2018-01-03T05:11:05.188Z,68.90
2018-01-03T05:16:44.380Z,68.70
2018-01-03T05:19:13.855Z,68.90
2018-01-03T05:21:43.399Z,68.70
2018-01-03T05:24:12.840Z,68.90
2018-01-03T05:26:41.530Z,68.90
2018-01-03T05:29:11.846Z,69.70
2018-01-03T05:31:40.530Z,69.00
2018-01-03T05:34:09.212Z,69.10
2018-01-03T05:36:44.171Z,69.20
2018-01-03T05:39:12.854Z,69.10
2018-01-03T05:41:47.802Z,69.00
2018-01-03T05:44:16.474Z,69.10
2018-01-03T05:46:45.152Z,69.40
2018-01-03T05:49:13.831Z,69.70
2018-01-03T05:51:42.510Z,69.70
2018-01-03T05:54:17.438Z,69.20
2018-01-03T05:56:46.130Z,69.00
2018-01-03T05:59:16.478Z,68.60
2018-01-03T06:01:46.016Z,68.60
2018-01-03T06:04:14.684Z,68.30
2018-01-03T06:06:43.370Z,68.40
2018-01-03T06:09:12.053Z,68.20
2018-01-03T06:11:40.734Z,68.00
2018-01-03T06:14:15.446Z,68.00
2018-01-03T06:16:44.132Z,67.90
2018-01-03T06:19:19.037Z,68.00
2018-01-03T06:21:54.730Z,67.40
2018-01-03T06:24:30.551Z,67.40
2018-01-03T06:26:59.262Z,67.20
2018-01-03T06:29:34.210Z,66.90
2018-01-03T06:32:02.914Z,66.70
2018-01-03T06:34:32.362Z,65.70
2018-01-03T06:37:07.224Z,65.70
2018-01-03T06:39:35.899Z,66.20
2018-01-03T06:42:04.590Z,66.00
2018-01-03T06:44:35.930Z,65.90
2018-01-03T06:47:10.778Z,65.80
2018-01-03T06:49:43.443Z,65.80
2018-01-03T06:52:19.178Z,65.60
2018-01-03T06:54:47.871Z,65.60
2018-01-03T07:00:20.233Z,66.00
2018-01-03T07:02:48.914Z,66.20
2018-01-03T07:05:17.607Z,66.30
2018-01-03T07:07:53.178Z,66.40
2018-01-03T07:10:22.243Z,66.30
2018-01-03T07:12:50.934Z,66.10
2018-01-03T07:15:19.622Z,66.00
2018-01-03T07:17:48.322Z,65.90
2018-01-03T07:20:17.010Z,65.60
2018-01-03T07:22:45.702Z,65.80
2018-01-03T07:25:16.234Z,65.60
2018-01-03T07:27:44.941Z,65.60
2018-01-03T07:30:13.630Z,65.70
2018-01-03T07:32:42.319Z,65.40
2018-01-03T07:35:11.010Z,65.50
2018-01-03T07:37:40.459Z,65.00
2018-01-03T07:40:15.435Z,64.90
2018-01-03T07:42:50.438Z,64.70
2018-01-03T07:45:19.142Z,64.70
2018-01-03T07:47:47.832Z,65.10
2018-01-03T07:50:16.519Z,65.50
2018-01-03T07:52:45.218Z,66.40
2018-01-03T07:55:13.911Z,66.60
2018-01-03T07:57:48.738Z,67.20
2018-01-03T08:00:18.691Z,68.00
2018-01-03T08:02:47.402Z,68.40
2018-01-03T08:05:17.715Z,67.60
2018-01-03T08:07:49.467Z,67.30
2018-01-03T08:10:18.147Z,64.30
2018-01-03T08:12:53.148Z,67.60
2018-01-03T08:15:21.799Z,70.00
2018-01-03T08:17:53.496Z,71.50
2018-01-03T08:20:22.930Z,72.90
2018-01-03T08:22:51.602Z,72.90
2018-01-03T08:25:21.493Z,72.90
2018-01-03T08:27:52.126Z,72.20
2018-01-03T08:30:21.578Z,72.00
2018-01-03T08:32:50.266Z,71.90
2018-01-03T08:35:25.259Z,71.90
2018-01-03T08:38:00.194Z,71.20
2018-01-03T08:40:32.645Z,70.90
2018-01-03T08:43:01.323Z,70.30
2018-01-03T08:45:30.876Z,70.10
2018-01-03T08:48:06.440Z,70.20
2018-01-03T08:50:35.129Z,70.20
2018-01-03T08:53:10.089Z,70.60
2018-01-03T08:55:39.553Z,69.90
2018-01-03T08:58:08.246Z,69.80
2018-01-03T09:00:36.937Z,69.10
2018-01-03T09:03:11.875Z,70.10
2018-01-03T09:05:40.567Z,70.70
2018-01-03T09:08:10.861Z,71.50
2018-01-03T09:10:39.556Z,71.50
2018-01-03T09:13:14.504Z,71.50
2018-01-03T09:15:43.986Z,71.70
2018-01-03T09:18:12.662Z,71.70
2018-01-03T09:20:41.358Z,71.70
2018-01-03T09:23:10.048Z,71.80
2018-01-03T09:25:44.894Z,71.10
2018-01-03T09:28:13.574Z,71.20
2018-01-03T09:30:42.253Z,71.60
2018-01-03T09:33:10.930Z,71.40
2018-01-03T09:35:40.561Z,71.50
2018-01-03T09:38:15.460Z,71.10
2018-01-03T09:40:44.136Z,71.10
2018-01-03T09:43:19.718Z,70.20
2018-01-03T09:45:54.711Z,70.20
2018-01-03T09:48:29.626Z,69.30
2018-01-03T09:50:59.170Z,70.00
2018-01-03T09:53:34.947Z,69.70
2018-01-03T09:56:03.625Z,69.60
2018-01-03T09:58:38.630Z,69.60
2018-01-03T10:01:07.315Z,69.70
2018-01-03T10:03:35.994Z,69.60
2018-01-03T10:06:04.681Z,69.80
2018-01-03T10:08:39.485Z,69.80
2018-01-03T10:11:14.306Z,69.60
2018-01-03T10:13:43.754Z,70.60
2018-01-03T10:16:18.599Z,69.80
2018-01-03T10:18:48.131Z,69.70
2018-01-03T10:21:16.832Z,69.40
2018-01-03T10:23:46.283Z,70.50
2018-01-03T10:26:14.959Z,70.50
2018-01-03T10:28:43.645Z,71.00
2018-01-03T10:31:18.600Z,70.50
2018-01-03T10:33:47.286Z,71.00
2018-01-03T10:36:22.112Z,70.60
2018-01-03T10:38:51.673Z,70.70
2018-01-03T10:41:27.256Z,70.00
2018-01-03T10:43:55.937Z,70.10
2018-01-03T10:46:24.618Z,71.00
2018-01-03T10:49:00.619Z,70.00
2018-01-03T10:51:30.213Z,70.10
2018-01-03T10:53:58.835Z,70.10
2018-01-03T10:56:32.563Z,69.80
2018-01-03T10:59:07.362Z,69.40
2018-01-03T11:01:36.815Z,69.20
2018-01-03T11:04:12.011Z,69.90
2018-01-03T11:06:47.698Z,68.40
2018-01-03T11:09:16.380Z,68.40
2018-01-03T11:11:45.930Z,67.00
2018-01-03T11:14:14.610Z,67.80
2018-01-03T11:16:43.285Z,67.20
2018-01-03T11:19:12.848Z,68.00
2018-01-03T11:21:41.523Z,68.30
2018-01-03T11:24:10.213Z,66.90
2018-01-03T11:26:45.041Z,67.20
2018-01-03T11:29:14.248Z,67.60
2018-01-03T11:31:49.819Z,66.20
2018-01-03T11:34:18.516Z,66.20
2018-01-03T11:37:04.543Z,66.50
2018-01-03T11:39:34.149Z,66.90
2018-01-03T11:42:09.795Z,66.40
2018-01-03T11:44:38.614Z,66.40
2018-01-03T11:47:09.994Z,66.00
2018-01-03T11:49:38.694Z,66.00
2018-01-03T11:52:07.367Z,65.60
2018-01-03T11:54:36.055Z,65.40
2018-01-03T11:57:04.751Z,64.60
2018-01-03T11:59:35.478Z,64.60
2018-01-03T12:02:04.162Z,64.70
2018-01-03T12:04:38.980Z,65.10
2018-01-03T12:07:07.671Z,65.80
2018-01-03T12:09:43.534Z,65.80
2018-01-03T12:12:13.142Z,65.40
2018-01-03T12:14:43.448Z,66.10
2018-01-03T12:17:18.568Z,66.10
2018-01-03T12:19:48.508Z,65.90
2018-01-03T12:22:18.175Z,65.20
2018-01-03T12:24:52.995Z,65.30
2018-01-03T12:27:21.827Z,64.90
2018-01-03T12:29:51.326Z,64.00
2018-01-03T12:32:20.006Z,63.80
2018-01-03T12:34:58.968Z,64.00
2018-01-03T12:37:28.651Z,62.70
2018-01-03T12:39:57.343Z,63.20
2018-01-03T12:42:26.166Z,62.30
2018-01-03T12:45:17.624Z,61.60
2018-01-03T12:47:46.306Z,62.00
2018-01-03T12:50:21.297Z,60.80
2018-01-03T12:52:49.993Z,62.10
2018-01-03T12:55:24.986Z,61.10
2018-01-03T12:57:53.666Z,61.90
2018-01-03T13:00:23.100Z,62.00
2018-01-03T13:02:51.789Z,61.70
2018-01-03T13:05:20.461Z,62.50
2018-01-03T13:07:49.146Z,61.80
2018-01-03T13:10:30.407Z,61.60
2018-01-03T13:13:04.430Z,61.50
2018-01-03T13:15:33.980Z,61.90
2018-01-03T13:18:03.518Z,61.30
2018-01-03T13:20:33.839Z,60.80
2018-01-03T13:23:03.486Z,60.80
2018-01-03T13:25:35.218Z,60.30
2018-01-03T13:28:03.916Z,61.00
2018-01-03T13:30:32.949Z,60.70
2018-01-03T13:33:02.423Z,59.90
2018-01-03T13:35:37.371Z,59.90
2018-01-03T13:38:06.083Z,58.60
2018-01-03T13:40:48.359Z,58.50
2018-01-03T13:43:17.506Z,57.60
2018-01-03T13:45:50.206Z,57.20
2018-01-03T13:51:37.335Z,57.20
2018-01-03T13:54:06.049Z,57.90
2018-01-03T13:56:40.978Z,56.60
2018-01-03T13:59:10.600Z,57.60
2018-01-03T14:05:00.975Z,55.90
2018-01-03T14:07:32.598Z,56.30
2018-01-03T14:10:18.599Z,55.70
2018-01-03T14:12:48.576Z,55.80
2018-01-03T14:15:23.694Z,55.40
2018-01-03T14:17:52.380Z,53.80
2018-01-03T14:20:30.563Z,54.30
2018-01-03T14:23:05.502Z,54.30
2018-01-03T14:25:40.456Z,54.30
2018-01-03T14:28:15.472Z,52.30
2018-01-03T14:33:43.999Z,52.30
2018-01-03T14:36:19.630Z,51.50
2018-01-03T14:38:55.355Z,51.50
2018-01-03T14:41:31.723Z,49.80
2018-01-03T14:44:06.522Z,49.60
2018-01-03T14:46:45.048Z,50.40
2018-01-03T14:49:14.687Z,50.00
2018-01-03T14:51:43.375Z,49.80
2018-01-03T14:54:12.062Z,49.10
2018-01-03T14:56:40.747Z,49.50
2018-01-03T14:59:09.435Z,50.00
2018-01-03T15:01:38.127Z,49.40
2018-01-03T15:04:08.793Z,48.90
2018-01-03T15:06:37.440Z,49.50
2018-01-03T15:09:14.209Z,49.00
2018-01-03T15:11:50.983Z,48.50
2018-01-03T15:14:25.953Z,49.30
2018-01-03T15:16:55.712Z,49.60
2018-01-03T15:22:37.609Z,49.80
2018-01-03T15:25:07.269Z,50.00
2018-01-03T15:27:35.954Z,50.20
2018-01-03T15:30:04.639Z,50.20
2018-01-03T15:32:33.334Z,50.40
2018-01-03T15:35:02.064Z,50.50
2018-01-03T15:37:30.802Z,50.80
2018-01-03T15:39:59.475Z,51.10
2018-01-03T15:42:29.131Z,50.80
2018-01-03T15:45:05.771Z,50.50
2018-01-03T15:47:34.482Z,50.60
2018-01-03T15:50:03.939Z,50.70
2018-01-03T15:52:38.866Z,50.70
2018-01-03T15:55:07.556Z,51.30
2018-01-03T15:57:43.403Z,51.20
2018-01-03T16:00:19.267Z,52.20
2018-01-03T16:02:57.850Z,53.70
2018-01-03T16:05:27.494Z,53.50
2018-01-03T16:08:00.583Z,54.00
2018-01-03T16:10:36.446Z,53.60
2018-01-03T16:13:10.203Z,54.10
2018-01-03T16:15:38.903Z,53.90
2018-01-03T16:18:08.592Z,53.90
2018-01-03T16:20:40.486Z,53.60
2018-01-03T16:23:15.402Z,54.30
2018-01-03T16:28:47.719Z,53.90
2018-01-03T16:31:17.310Z,53.60
2018-01-03T16:33:52.150Z,53.80
2018-01-03T16:36:20.900Z,53.20
2018-01-03T16:38:49.570Z,53.40
2018-01-03T16:41:24.350Z,53.90
2018-01-03T16:43:59.278Z,55.50
2018-01-03T16:46:28.062Z,57.60
2018-01-03T16:49:09.682Z,58.80
2018-01-03T16:51:50.921Z,59.90
2018-01-03T16:54:20.563Z,61.00
2018-01-03T16:56:51.377Z,61.60
2018-01-03T16:59:21.654Z,61.90
2018-01-03T17:01:56.410Z,62.80
2018-01-03T17:04:25.083Z,63.40
2018-01-03T17:06:53.757Z,63.30
2018-01-03T17:09:29.450Z,63.80
2018-01-03T17:12:04.306Z,63.90
2018-01-03T17:14:40.042Z,63.50
2018-01-03T17:17:19.371Z,63.50
2018-01-03T17:19:48.132Z,63.70
2018-01-03T17:22:23.007Z,63.20
2018-01-03T17:24:51.698Z,62.50
2018-01-03T17:27:29.266Z,61.80
2018-01-03T17:29:57.997Z,61.80
2018-01-03T17:32:32.806Z,61.40
2018-01-03T17:35:01.510Z,60.90
2018-01-03T17:37:30.974Z,60.60
2018-01-03T17:39:59.653Z,60.50
2018-01-03T17:42:34.592Z,61.60
2018-01-03T17:45:09.474Z,60.70
2018-01-03T17:47:38.218Z,60.20
2018-01-03T17:50:06.906Z,59.20
2018-01-03T17:52:35.612Z,59.70
2018-01-03T17:55:04.286Z,59.40
2018-01-03T17:57:41.154Z,58.60
2018-01-03T18:00:09.835Z,58.60
2018-01-03T18:02:38.542Z,58.20
2018-01-03T18:05:07.998Z,58.40
2018-01-03T18:07:36.670Z,58.10
2018-01-03T18:10:06.218Z,57.90
2018-01-03T18:12:37.540Z,57.50
2018-01-03T18:15:12.394Z,57.50
2018-01-03T18:17:41.088Z,57.30
2018-01-03T18:20:10.822Z,57.40
2018-01-03T18:22:39.469Z,57.40
2018-01-03T18:25:09.783Z,56.80
2018-01-03T18:27:38.468Z,56.80
2018-01-03T18:30:14.246Z,56.20
2018-01-03T18:32:42.931Z,56.40
2018-01-03T18:35:12.497Z,55.80
2018-01-03T18:37:41.192Z,55.20
2018-01-03T18:40:10.013Z,55.00
2018-01-03T18:42:44.817Z,55.40
2018-01-03T18:45:13.505Z,55.60
2018-01-03T18:47:42.202Z,55.80
2018-01-03T18:50:10.882Z,55.60
2018-01-03T18:52:40.450Z,55.90
2018-01-03T18:55:26.092Z,55.70
2018-01-03T18:57:54.782Z,56.00
2018-01-03T19:00:23.468Z,55.80
2018-01-03T19:02:58.362Z,56.10
2018-01-03T19:05:28.991Z,56.10
2018-01-03T19:07:57.675Z,55.60
2018-01-03T19:10:26.356Z,56.10
2018-01-03T19:13:06.510Z,55.90
2018-01-03T19:15:41.284Z,56.10
2018-01-03T19:18:10.001Z,55.80
2018-01-03T19:20:38.678Z,55.50
2018-01-03T19:23:07.369Z,55.20
2018-01-03T19:25:36.074Z,55.40
2018-01-03T19:28:11.964Z,55.70
2018-01-03T19:30:46.846Z,55.60
2018-01-03T19:33:37.106Z,55.30
2018-01-03T19:42:42.680Z,56.50
2018-01-03T19:45:11.960Z,56.50
2018-01-03T19:47:40.694Z,56.30
2018-01-03T19:50:10.190Z,57.00
2018-01-03T19:52:39.703Z,57.10
2018-01-03T19:55:09.287Z,57.10
2018-01-03T19:57:44.164Z,57.00
2018-01-03T20:00:23.224Z,57.30
2018-01-03T20:02:51.918Z,57.00
2018-01-03T20:05:27.854Z,56.20
2018-01-03T20:08:02.690Z,56.50
2018-01-03T20:10:32.997Z,56.80
2018-01-03T20:13:01.802Z,56.70
2018-01-03T20:15:36.726Z,55.90
2018-01-03T20:18:12.279Z,56.10
2018-01-03T20:20:47.193Z,56.10
2018-01-03T20:23:22.854Z,55.90
2018-01-03T20:25:51.544Z,56.00
2018-01-03T20:28:20.245Z,56.40
2018-01-03T20:39:41.116Z,58.90
2018-01-03T20:42:12.720Z,59.10
2018-01-03T20:44:41.683Z,59.20
2018-01-03T20:47:13.754Z,59.60
2018-01-03T20:49:43.959Z,61.80
2018-01-03T20:52:17.430Z,62.60
2018-01-03T20:54:53.991Z,61.80
2018-01-03T20:57:47.357Z,61.80
2018-01-03T21:00:16.306Z,62.90
2018-01-03T21:02:45.334Z,62.30
2018-01-03T21:05:20.570Z,62.40
2018-01-03T21:08:07.368Z,62.50
2018-01-03T21:10:36.919Z,61.50
2018-01-03T21:13:06.101Z,61.50
2018-01-03T21:15:38.359Z,61.30
2018-01-03T21:18:13.631Z,61.50
2018-01-03T21:20:42.644Z,61.50
2018-01-03T21:23:11.402Z,61.10
2018-01-03T21:25:40.275Z,60.90
2018-01-03T21:28:09.646Z,60.80
2018-01-03T21:30:39.010Z,61.00
2018-01-03T21:33:08.411Z,60.70
2018-01-03T21:35:52.531Z,60.70
2018-01-03T21:38:40.627Z,61.00
2018-01-03T21:43:56.902Z,61.50
2018-01-03T21:46:27.741Z,61.10
2018-01-03T21:49:11.642Z,61.50
2018-01-03T21:51:46.583Z,60.90
2018-01-03T21:54:20.149Z,60.90
2018-01-03T21:56:55.266Z,60.30
2018-01-03T21:59:24.837Z,60.40
2018-01-03T22:02:00.354Z,60.20
2018-01-03T22:04:32.473Z,59.50
2018-01-03T22:07:11.974Z,60.30
2018-01-03T22:09:43.531Z,60.60
2018-01-03T22:12:21.192Z,60.60
2018-01-03T22:14:55.031Z,60.60
2018-01-03T22:17:34.908Z,60.70
2018-01-03T22:20:08.503Z,60.50
2018-01-03T22:25:34.307Z,60.10
2018-01-03T22:28:14.630Z,59.40
2018-01-03T22:30:50.056Z,59.50
2018-01-03T22:33:30.078Z,59.60
2018-01-03T22:36:13.382Z,59.30
2018-01-03T22:38:55.700Z,59.00
2018-01-03T22:41:34.690Z,58.50
2018-01-03T22:44:11.185Z,58.40
2018-01-03T23:02:44.402Z,61.10
2018-01-03T23:05:13.097Z,61.60
2018-01-03T23:07:59.564Z,61.30
2018-01-03T23:10:34.546Z,61.20
2018-01-03T23:13:03.246Z,61.00
2018-01-03T23:15:32.696Z,60.80
2018-01-03T23:19:21.506Z,60.30
2018-01-03T23:21:59.154Z,60.00
2018-01-03T23:24:34.183Z,60.00
2018-01-03T23:27:14.085Z,59.40
2018-01-03T23:29:48.931Z,59.90
2018-01-03T23:32:18.516Z,60.50
2018-01-03T23:35:12.034Z,60.40
2018-01-03T23:37:40.912Z,60.40
2018-01-03T23:40:09.684Z,59.70
2018-01-03T23:42:39.176Z,59.90
2018-01-03T23:45:08.696Z,59.70
2018-01-03T23:47:43.668Z,59.70
2018-01-03T23:50:12.384Z,59.60
2018-01-03T23:52:41.112Z,59.40
2018-01-03T23:57:40.990Z,59.40
